createdAt,value
2023-03-08T00:00:21.114Z,18.85
2023-03-08T00:01:24.042Z,19.25
2023-03-08T00:02:25.962Z,19.24
2023-03-08T00:03:27.983Z,18.96
2023-03-08T00:04:29.830Z,19.10
2023-03-08T00:05:31.638Z,19.04
2023-03-08T00:06:33.554Z,19.20
2023-03-08T00:07:35.405Z,19.21
2023-03-08T00:08:37.313Z,19.01
2023-03-08T00:09:39.135Z,18.67
2023-03-08T00:10:40.914Z,18.58
2023-03-08T00:11:42.749Z,19.04
2023-03-08T00:12:44.582Z,19.29
2023-03-08T00:13:46.489Z,19.03
2023-03-08T00:14:49.067Z,19.08
2023-03-08T00:15:51.109Z,19.09
2023-03-08T00:16:52.911Z,18.98
2023-03-08T00:17:54.792Z,18.93
2023-03-08T00:18:56.580Z,18.72
2023-03-08T00:19:58.477Z,18.67
2023-03-08T00:21:14.448Z,18.82
2023-03-08T00:22:16.244Z,18.65
2023-03-08T00:23:18.098Z,19.30
2023-03-08T00:24:19.923Z,18.65
2023-03-08T00:25:21.740Z,18.98
2023-03-08T00:26:23.730Z,18.82
2023-03-08T00:27:25.541Z,18.66
2023-03-08T00:28:27.508Z,19.20
2023-03-08T00:29:29.321Z,18.90
2023-03-08T00:30:32.279Z,18.83
2023-03-08T00:31:34.421Z,18.75
2023-03-08T00:32:36.265Z,19.11
2023-03-08T00:33:38.604Z,19.45
2023-03-08T00:34:46.300Z,19.06
2023-03-08T00:35:58.230Z,19.00
2023-03-08T00:37:00.026Z,19.25
2023-03-08T00:38:01.827Z,19.04
2023-03-08T00:39:03.860Z,19.23
2023-03-08T00:40:06.445Z,19.04
2023-03-08T00:41:10.113Z,19.27
2023-03-08T00:42:12.444Z,19.41
2023-03-08T00:43:14.242Z,19.35
2023-03-08T00:44:16.023Z,18.92
2023-03-08T00:45:18.453Z,18.98
2023-03-08T00:46:20.381Z,19.24
2023-03-08T00:47:22.195Z,19.37
2023-03-08T00:48:24.493Z,18.98
2023-03-08T00:49:27.162Z,18.88
2023-03-08T00:50:28.928Z,19.46
2023-03-08T00:51:30.763Z,19.21
2023-03-08T00:52:32.572Z,19.08
2023-03-08T00:53:34.974Z,18.97
2023-03-08T00:54:37.015Z,19.17
2023-03-08T00:55:39.291Z,18.97
2023-03-08T00:56:41.382Z,19.16
2023-03-08T00:57:43.189Z,19.12
2023-03-08T00:58:45.626Z,18.95
2023-03-08T00:59:47.421Z,19.15
2023-03-08T01:00:49.508Z,19.46
2023-03-08T01:01:51.349Z,19.57
2023-03-08T01:02:53.578Z,18.91
2023-03-08T01:03:55.505Z,19.66
2023-03-08T01:04:58.473Z,18.95
2023-03-08T01:06:08.199Z,19.62
2023-03-08T01:07:11.868Z,18.85
2023-03-08T01:08:15.149Z,18.93
2023-03-08T01:09:16.914Z,19.13
2023-03-08T01:10:20.317Z,19.41
2023-03-08T01:11:25.113Z,19.36
2023-03-08T01:12:27.029Z,19.18
2023-03-08T01:13:32.109Z,19.53
2023-03-08T01:14:34.479Z,18.96
2023-03-08T01:15:37.984Z,19.25
2023-03-08T01:16:42.041Z,18.93
2023-03-08T01:17:43.877Z,19.20
2023-03-08T01:18:45.753Z,19.42
2023-03-08T01:19:47.524Z,19.21
2023-03-08T01:21:01.135Z,19.68
2023-03-08T01:22:04.108Z,19.38
2023-03-08T01:23:05.968Z,19.07
2023-03-08T01:24:08.020Z,19.07
2023-03-08T01:25:10.155Z,19.78
2023-03-08T01:26:17.660Z,19.45
2023-03-08T01:27:19.469Z,19.29
2023-03-08T01:28:21.270Z,19.31
2023-03-08T01:29:23.061Z,19.89
2023-03-08T01:30:25.452Z,19.27
2023-03-08T01:31:29.667Z,19.84
2023-03-08T01:32:32.610Z,19.28
2023-03-08T01:33:35.005Z,19.54
2023-03-08T01:34:38.503Z,19.51
2023-03-08T01:35:40.294Z,19.30
2023-03-08T01:36:42.616Z,19.37
2023-03-08T01:37:44.507Z,19.83
2023-03-08T01:38:47.541Z,19.22
2023-03-08T01:39:49.335Z,19.31
2023-03-08T01:40:57.635Z,19.31
2023-03-08T01:41:59.729Z,19.08
2023-03-08T01:43:21.632Z,19.30
2023-03-08T01:44:24.092Z,19.54
2023-03-08T01:46:04.841Z,19.33
2023-03-08T01:47:18.147Z,18.89
2023-03-08T01:49:09.829Z,19.14
2023-03-08T01:50:13.465Z,18.82
2023-03-08T01:51:24.230Z,19.33
2023-03-08T01:52:35.771Z,19.30
2023-03-08T01:53:39.457Z,19.64
2023-03-08T01:54:51.529Z,19.26
2023-03-08T01:55:53.740Z,19.15
2023-03-08T01:57:01.708Z,19.68
2023-03-08T01:58:04.248Z,19.36
2023-03-08T01:59:06.822Z,19.53
2023-03-08T02:00:16.171Z,19.19
2023-03-08T02:01:20.486Z,19.64
2023-03-08T02:02:28.505Z,19.54
2023-03-08T02:03:31.482Z,19.12
2023-03-08T02:04:35.003Z,19.33
2023-03-08T02:05:40.297Z,19.64
2023-03-08T02:06:49.493Z,19.78
2023-03-08T02:07:55.936Z,19.87
2023-03-08T02:09:04.992Z,19.43
2023-03-08T02:10:07.749Z,19.82
2023-03-08T02:11:11.285Z,19.92
2023-03-08T02:12:14.005Z,19.48
2023-03-08T02:13:16.802Z,19.58
2023-03-08T02:14:19.717Z,19.41
2023-03-08T02:15:24.786Z,19.51
2023-03-08T02:16:30.572Z,19.22
2023-03-08T02:17:37.714Z,19.54
2023-03-08T02:18:59.694Z,19.80
2023-03-08T02:20:19.248Z,19.32
2023-03-08T02:21:21.568Z,19.07
2023-03-08T02:22:23.710Z,19.18
2023-03-08T02:23:26.080Z,19.54
2023-03-08T02:24:28.011Z,19.55
2023-03-08T02:25:29.955Z,19.41
2023-03-08T02:26:32.464Z,19.82
2023-03-08T02:27:34.319Z,19.18
2023-03-08T02:28:36.641Z,19.57
2023-03-08T02:29:38.807Z,19.43
2023-03-08T02:30:40.777Z,19.41
2023-03-08T02:31:42.842Z,19.22
2023-03-08T02:32:44.718Z,19.73
2023-03-08T02:33:46.618Z,19.93
2023-03-08T02:34:48.432Z,19.74
2023-03-08T02:35:51.305Z,19.73
2023-03-08T02:36:53.231Z,19.25
2023-03-08T02:37:55.036Z,19.26
2023-03-08T02:38:56.886Z,19.46
2023-03-08T02:39:58.902Z,19.12
2023-03-08T02:41:00.736Z,19.41
2023-03-08T02:42:02.625Z,19.19
2023-03-08T02:43:05.528Z,19.33
2023-03-08T02:44:07.385Z,19.32
2023-03-08T02:45:11.051Z,19.53
2023-03-08T02:46:14.394Z,19.74
2023-03-08T02:47:16.291Z,19.44
2023-03-08T02:48:19.208Z,19.64
2023-03-08T02:49:21.980Z,19.61
2023-03-08T02:50:23.783Z,19.44
2023-03-08T02:51:25.602Z,19.25
2023-03-08T02:52:27.372Z,19.65
2023-03-08T02:53:29.432Z,19.26
2023-03-08T02:54:31.954Z,19.90
2023-03-08T02:55:37.341Z,19.55
2023-03-08T02:56:43.924Z,19.74
2023-03-08T02:57:47.977Z,19.29
2023-03-08T02:58:51.264Z,19.17
2023-03-08T02:59:53.118Z,19.59
2023-03-08T03:00:55.018Z,19.35
2023-03-08T03:01:57.973Z,19.59
2023-03-08T03:03:00.140Z,19.54
2023-03-08T03:04:02.978Z,19.60
2023-03-08T03:05:11.151Z,19.43
2023-03-08T03:06:17.794Z,19.21
2023-03-08T03:07:22.080Z,19.71
2023-03-08T03:08:24.914Z,19.54
2023-03-08T03:09:29.997Z,19.55
2023-03-08T03:10:32.037Z,19.31
2023-03-08T03:11:33.861Z,19.42
2023-03-08T03:12:36.655Z,19.46
2023-03-08T03:13:40.543Z,19.24
2023-03-08T03:14:43.439Z,19.42
2023-03-08T03:15:45.431Z,19.40
2023-03-08T03:16:47.544Z,19.48
2023-03-08T03:17:49.393Z,19.28
2023-03-08T03:18:53.776Z,19.73
2023-03-08T03:19:55.564Z,19.57
2023-03-08T03:21:03.644Z,19.65
2023-03-08T03:22:06.289Z,19.42
2023-03-08T03:23:08.932Z,19.33
2023-03-08T03:24:20.147Z,19.58
2023-03-08T03:25:27.859Z,19.12
2023-03-08T03:26:30.219Z,19.46
2023-03-08T03:27:32.782Z,19.18
2023-03-08T03:28:34.758Z,19.76
2023-03-08T03:29:38.302Z,19.19
2023-03-08T03:30:48.237Z,19.47
2023-03-08T03:31:50.569Z,19.55
2023-03-08T03:32:54.839Z,19.72
2023-03-08T03:34:03.039Z,19.77
2023-03-08T03:35:05.309Z,19.51
2023-03-08T03:36:10.591Z,19.81
2023-03-08T03:37:12.415Z,19.38
2023-03-08T03:38:16.044Z,19.12
2023-03-08T03:39:19.937Z,19.78
2023-03-08T03:40:23.406Z,19.54
2023-03-08T03:41:30.355Z,19.56
2023-03-08T03:42:37.586Z,19.72
2023-03-08T03:43:47.233Z,19.44
2023-03-08T03:44:49.410Z,19.59
2023-03-08T03:45:59.219Z,19.19
2023-03-08T03:47:02.056Z,19.31
2023-03-08T03:48:04.623Z,19.66
2023-03-08T03:49:07.566Z,19.68
2023-03-08T03:50:13.522Z,19.31
2023-03-08T03:51:29.628Z,19.95
2023-03-08T03:52:42.781Z,19.54
2023-03-08T03:53:45.121Z,19.56
2023-03-08T03:54:47.304Z,19.43
2023-03-08T03:55:49.721Z,19.25
2023-03-08T03:56:51.642Z,19.22
2023-03-08T03:57:57.126Z,19.76
2023-03-08T03:58:59.133Z,19.72
2023-03-08T04:00:02.611Z,19.96
2023-03-08T04:01:27.074Z,19.45
2023-03-08T04:02:34.383Z,19.51
2023-03-08T04:03:37.086Z,19.83
2023-03-08T04:04:39.030Z,19.80
2023-03-08T04:05:41.629Z,19.80
2023-03-08T04:06:43.458Z,19.89
2023-03-08T04:07:48.549Z,19.69
2023-03-08T04:08:55.909Z,19.78
2023-03-08T04:09:59.933Z,19.73
2023-03-08T04:11:01.841Z,20.13
2023-03-08T04:12:05.792Z,19.58
2023-03-08T04:13:12.031Z,19.90
2023-03-08T04:14:15.155Z,19.62
2023-03-08T04:15:18.707Z,19.74
2023-03-08T04:16:24.535Z,20.07
2023-03-08T04:17:26.830Z,19.31
2023-03-08T04:18:29.784Z,19.57
2023-03-08T04:19:31.988Z,20.16
2023-03-08T04:20:35.569Z,19.89
2023-03-08T04:21:39.749Z,19.37
2023-03-08T04:22:41.585Z,19.60
2023-03-08T04:23:52.058Z,19.75
2023-03-08T04:24:54.071Z,19.38
2023-03-08T04:26:03.619Z,19.73
2023-03-08T04:27:05.489Z,19.79
2023-03-08T04:28:07.625Z,19.52
2023-03-08T04:29:09.604Z,19.64
2023-03-08T04:30:13.740Z,19.83
2023-03-08T04:31:22.552Z,19.93
2023-03-08T04:32:24.559Z,19.75
2023-03-08T04:33:31.169Z,20.11
2023-03-08T04:34:33.536Z,19.85
2023-03-08T04:35:35.952Z,19.71
2023-03-08T04:36:38.681Z,19.99
2023-03-08T04:37:40.568Z,19.66
2023-03-08T04:38:47.837Z,19.55
2023-03-08T04:39:49.647Z,19.63
2023-03-08T04:41:11.420Z,19.81
2023-03-08T04:42:21.296Z,19.37
2023-03-08T04:43:23.693Z,19.38
2023-03-08T04:44:25.842Z,20.04
2023-03-08T04:45:28.150Z,19.56
2023-03-08T04:46:33.278Z,19.77
2023-03-08T04:47:35.677Z,19.91
2023-03-08T04:48:37.884Z,20.10
2023-03-08T04:49:40.165Z,19.83
2023-03-08T04:50:42.633Z,20.15
2023-03-08T04:51:45.148Z,19.61
2023-03-08T04:52:47.424Z,19.69
2023-03-08T04:53:49.733Z,20.01
2023-03-08T04:54:52.323Z,20.00
2023-03-08T04:56:00.943Z,20.09
2023-03-08T04:57:03.221Z,19.56
2023-03-08T04:58:07.229Z,19.38
2023-03-08T04:59:09.426Z,19.98
2023-03-08T05:00:12.564Z,19.84
2023-03-08T05:01:18.949Z,19.77
2023-03-08T05:02:23.434Z,19.64
2023-03-08T05:03:26.004Z,19.49
2023-03-08T05:04:27.909Z,19.33
2023-03-08T05:05:29.735Z,19.39
2023-03-08T05:06:32.636Z,19.45
2023-03-08T05:07:34.534Z,19.60
2023-03-08T05:08:37.532Z,20.10
2023-03-08T05:09:42.802Z,19.75
2023-03-08T05:10:59.607Z,19.87
2023-03-08T05:12:05.088Z,19.76
2023-03-08T05:13:30.475Z,19.57
2023-03-08T05:14:32.342Z,19.72
2023-03-08T05:15:35.260Z,19.77
2023-03-08T05:16:38.062Z,19.63
2023-03-08T05:17:39.901Z,19.49
2023-03-08T05:18:42.103Z,19.60
2023-03-08T05:19:44.042Z,20.05
2023-03-08T05:21:06.639Z,19.98
2023-03-08T05:22:09.748Z,19.38
2023-03-08T05:23:17.745Z,19.78
2023-03-08T05:24:19.928Z,20.05
2023-03-08T05:25:22.521Z,20.12
2023-03-08T05:26:24.740Z,19.61
2023-03-08T05:27:27.180Z,20.03
2023-03-08T05:28:32.987Z,19.62
2023-03-08T05:29:37.194Z,19.71
2023-03-08T05:30:40.272Z,19.56
2023-03-08T05:31:44.940Z,19.41
2023-03-08T05:32:48.302Z,20.07
2023-03-08T05:33:51.681Z,20.02
2023-03-08T05:35:00.140Z,19.48
2023-03-08T05:36:10.927Z,19.73
2023-03-08T05:37:13.472Z,19.85
2023-03-08T05:38:17.732Z,19.51
2023-03-08T05:39:20.384Z,19.58
2023-03-08T05:40:34.988Z,19.80
2023-03-08T05:41:36.824Z,19.78
2023-03-08T05:42:39.330Z,19.34
2023-03-08T05:43:42.300Z,19.54
2023-03-08T05:44:45.880Z,19.45
2023-03-08T05:45:59.261Z,19.60
2023-03-08T05:47:02.594Z,19.81
2023-03-08T05:48:04.726Z,19.38
2023-03-08T05:49:08.529Z,19.93
2023-03-08T05:50:12.207Z,19.73
2023-03-08T05:51:18.932Z,19.73
2023-03-08T05:52:21.321Z,19.90
2023-03-08T05:53:24.358Z,19.71
2023-03-08T05:54:26.770Z,19.41
2023-03-08T05:55:32.252Z,20.17
2023-03-08T05:56:34.485Z,20.16
2023-03-08T05:57:44.990Z,19.88
2023-03-08T05:58:48.407Z,19.89
2023-03-08T05:59:51.563Z,19.62
2023-03-08T06:00:56.486Z,19.99
2023-03-08T06:01:58.757Z,19.52
2023-03-08T06:03:11.782Z,20.22
2023-03-08T06:04:16.459Z,20.00
2023-03-08T06:05:22.536Z,19.61
2023-03-08T06:06:28.480Z,19.99
2023-03-08T06:07:34.371Z,19.79
2023-03-08T06:08:42.677Z,19.92
2023-03-08T06:09:44.466Z,19.98
2023-03-08T06:10:49.859Z,19.88
2023-03-08T06:11:51.682Z,19.77
2023-03-08T06:12:53.868Z,19.45
2023-03-08T06:13:59.456Z,19.66
2023-03-08T06:15:05.403Z,19.69
2023-03-08T06:16:11.325Z,19.51
2023-03-08T06:17:13.316Z,19.64
2023-03-08T06:18:18.936Z,19.45
2023-03-08T06:19:21.027Z,19.78
2023-03-08T06:20:25.637Z,20.00
2023-03-08T06:21:27.511Z,19.66
2023-03-08T06:22:35.612Z,19.99
2023-03-08T06:23:38.104Z,19.25
2023-03-08T06:24:40.064Z,19.68
2023-03-08T06:25:44.234Z,19.81
2023-03-08T06:26:46.914Z,19.51
2023-03-08T06:27:50.585Z,19.47
2023-03-08T06:29:01.245Z,19.26
2023-03-08T06:30:05.994Z,19.37
2023-03-08T06:31:12.652Z,19.33
2023-03-08T06:32:14.991Z,18.99
2023-03-08T06:33:18.766Z,19.14
2023-03-08T06:34:21.712Z,19.01
2023-03-08T06:35:26.043Z,19.11
2023-03-08T06:36:32.553Z,18.91
2023-03-08T06:37:35.533Z,19.01
2023-03-08T06:38:40.172Z,18.91
2023-03-08T06:39:42.129Z,19.39
2023-03-08T06:40:43.987Z,19.02
2023-03-08T06:41:45.887Z,19.16
2023-03-08T06:42:48.972Z,19.36
2023-03-08T06:43:51.277Z,19.03
2023-03-08T06:44:53.066Z,18.98
2023-03-08T06:45:55.335Z,19.00
2023-03-08T06:46:57.646Z,19.07
2023-03-08T06:48:00.553Z,19.22
2023-03-08T06:49:04.312Z,18.91
2023-03-08T06:50:08.550Z,19.26
2023-03-08T06:51:12.690Z,18.89
2023-03-08T06:52:18.698Z,18.57
2023-03-08T06:53:22.384Z,18.90
2023-03-08T06:54:30.829Z,19.06
2023-03-08T06:55:34.763Z,18.60
2023-03-08T06:56:36.630Z,18.48
2023-03-08T06:57:38.767Z,19.12
2023-03-08T06:58:40.932Z,18.91
2023-03-08T06:59:42.691Z,18.33
2023-03-08T07:00:44.455Z,18.82
2023-03-08T07:01:46.352Z,18.83
2023-03-08T07:02:49.749Z,18.74
2023-03-08T07:03:52.947Z,18.97
2023-03-08T07:04:54.764Z,18.80
2023-03-08T07:06:05.928Z,19.05
2023-03-08T07:07:08.103Z,18.88
2023-03-08T07:08:09.922Z,18.67
2023-03-08T07:09:13.274Z,18.69
2023-03-08T07:10:16.219Z,18.43
2023-03-08T07:11:18.029Z,18.63
2023-03-08T07:12:19.975Z,18.53
2023-03-08T07:13:23.747Z,19.00
2023-03-08T07:14:25.583Z,18.71
2023-03-08T07:15:27.636Z,18.83
2023-03-08T07:16:29.538Z,18.82
2023-03-08T07:17:33.013Z,19.06
2023-03-08T07:18:35.128Z,18.79
2023-03-08T07:19:36.977Z,18.38
2023-03-08T07:20:38.769Z,18.44
2023-03-08T07:21:44.361Z,18.94
2023-03-08T07:22:47.004Z,18.42
2023-03-08T07:23:51.668Z,18.80
2023-03-08T07:24:53.584Z,18.95
2023-03-08T07:25:55.484Z,18.93
2023-03-08T07:26:57.868Z,19.03
2023-03-08T07:28:00.306Z,18.51
2023-03-08T07:29:02.145Z,18.91
2023-03-08T07:30:04.450Z,19.05
2023-03-08T07:31:06.335Z,18.63
2023-03-08T07:32:08.374Z,18.89
2023-03-08T07:33:11.956Z,18.78
2023-03-08T07:34:13.844Z,18.83
2023-03-08T07:35:16.372Z,18.92
2023-03-08T07:36:18.205Z,18.63
2023-03-08T07:37:20.089Z,18.70
2023-03-08T07:38:21.920Z,18.75
2023-03-08T07:39:23.752Z,18.51
2023-03-08T07:40:25.632Z,18.84
2023-03-08T07:41:30.605Z,18.86
2023-03-08T07:42:32.559Z,18.85
2023-03-08T07:43:46.989Z,18.65
2023-03-08T07:44:52.410Z,19.09
2023-03-08T07:45:54.306Z,18.70
2023-03-08T07:46:56.232Z,18.50
2023-03-08T07:47:58.769Z,18.71
2023-03-08T07:49:00.770Z,18.70
2023-03-08T07:50:02.676Z,19.08
2023-03-08T07:51:07.661Z,18.59
2023-03-08T07:52:09.519Z,18.64
2023-03-08T07:53:11.320Z,18.92
2023-03-08T07:54:13.111Z,18.66
2023-03-08T07:55:15.198Z,18.79
2023-03-08T07:56:17.035Z,18.87
2023-03-08T07:57:18.804Z,18.80
2023-03-08T07:58:22.080Z,19.01
2023-03-08T07:59:24.496Z,18.70
2023-03-08T08:00:26.709Z,18.62
2023-03-08T08:01:28.500Z,18.90
2023-03-08T08:02:30.471Z,18.85
2023-03-08T08:03:32.625Z,18.97
2023-03-08T08:04:35.928Z,18.82
2023-03-08T08:05:37.958Z,18.78
2023-03-08T08:06:40.672Z,18.92
2023-03-08T08:07:42.468Z,18.93
2023-03-08T08:08:44.284Z,18.69
2023-03-08T08:09:46.141Z,19.08
2023-03-08T08:10:47.900Z,19.01
2023-03-08T08:11:49.681Z,18.90
2023-03-08T08:12:51.638Z,18.87
2023-03-08T08:13:53.832Z,19.00
2023-03-08T08:14:55.633Z,19.02
2023-03-08T08:16:02.297Z,19.09
2023-03-08T08:17:04.456Z,19.26
2023-03-08T08:18:06.598Z,18.82
2023-03-08T08:19:11.053Z,19.19
2023-03-08T08:20:12.877Z,18.98
2023-03-08T08:21:16.375Z,19.04
2023-03-08T08:22:18.168Z,19.11
2023-03-08T08:23:19.943Z,18.81
2023-03-08T08:24:21.757Z,18.93
2023-03-08T08:25:23.658Z,19.10
2023-03-08T08:26:25.532Z,18.82
2023-03-08T08:27:27.364Z,18.96
2023-03-08T08:28:29.435Z,19.06
2023-03-08T08:29:31.209Z,19.21
2023-03-08T08:30:33.007Z,19.14
2023-03-08T08:31:34.952Z,19.01
2023-03-08T08:32:36.893Z,18.70
2023-03-08T08:33:39.006Z,19.15
2023-03-08T08:34:40.838Z,18.95
2023-03-08T08:35:43.684Z,18.90
2023-03-08T08:36:45.980Z,19.17
2023-03-08T08:37:47.769Z,18.69
2023-03-08T08:38:50.571Z,19.05
2023-03-08T08:39:52.365Z,19.03
2023-03-08T08:40:54.192Z,18.81
2023-03-08T08:41:56.003Z,19.09
2023-03-08T08:42:57.832Z,18.64
2023-03-08T08:44:00.369Z,18.72
2023-03-08T08:45:02.231Z,18.70
2023-03-08T08:46:05.273Z,18.77
2023-03-08T08:47:07.127Z,19.10
2023-03-08T08:48:08.966Z,18.88
2023-03-08T08:49:11.041Z,19.20
2023-03-08T08:50:14.124Z,19.15
2023-03-08T08:51:16.298Z,19.17
2023-03-08T08:52:19.731Z,18.70
2023-03-08T08:53:22.226Z,18.63
2023-03-08T08:54:24.138Z,18.77
2023-03-08T08:55:26.460Z,18.92
2023-03-08T08:56:29.373Z,18.99
2023-03-08T08:57:35.261Z,19.00
2023-03-08T08:58:37.030Z,18.65
2023-03-08T08:59:39.317Z,18.77
2023-03-08T09:00:41.553Z,19.07
2023-03-08T09:01:47.112Z,19.08
2023-03-08T09:02:49.496Z,19.02
2023-03-08T09:03:51.915Z,18.72
2023-03-08T09:04:53.953Z,18.86
2023-03-08T09:05:58.565Z,19.08
2023-03-08T09:07:00.388Z,19.21
2023-03-08T09:08:02.282Z,18.70
2023-03-08T09:09:05.762Z,18.91
2023-03-08T09:10:08.519Z,18.69
2023-03-08T09:11:11.014Z,18.76
2023-03-08T09:12:13.118Z,19.00
2023-03-08T09:13:15.135Z,19.01
2023-03-08T09:14:16.966Z,18.88
2023-03-08T09:15:18.923Z,19.02
2023-03-08T09:16:22.271Z,19.23
2023-03-08T09:17:24.085Z,19.00
2023-03-08T09:18:26.657Z,18.70
2023-03-08T09:19:28.884Z,18.98
2023-03-08T09:20:30.707Z,18.95
2023-03-08T09:21:33.380Z,18.94
2023-03-08T09:22:36.642Z,18.74
2023-03-08T09:23:38.517Z,18.98
2023-03-08T09:24:40.379Z,18.74
2023-03-08T09:25:42.157Z,18.83
2023-03-08T09:26:44.061Z,18.75
2023-03-08T09:27:45.830Z,18.72
2023-03-08T09:28:47.809Z,18.82
2023-03-08T09:29:49.694Z,18.75
2023-03-08T09:30:54.276Z,18.49
2023-03-08T09:31:57.766Z,18.49
2023-03-08T09:33:02.248Z,18.93
2023-03-08T09:34:09.048Z,18.89
2023-03-08T09:35:11.157Z,18.85
2023-03-08T09:36:13.167Z,18.47
2023-03-08T09:37:15.022Z,18.68
2023-03-08T09:38:16.845Z,18.80
2023-03-08T09:39:18.695Z,18.66
2023-03-08T09:40:23.651Z,18.93
2023-03-08T09:41:28.385Z,18.68
2023-03-08T09:42:34.107Z,18.56
2023-03-08T09:44:17.477Z,18.78
2023-03-08T09:45:28.811Z,18.37
2023-03-08T09:46:36.264Z,18.11
2023-03-08T09:48:01.281Z,18.51
2023-03-08T09:49:05.312Z,18.55
2023-03-08T09:50:35.237Z,18.89
2023-03-08T09:51:41.107Z,18.83
2023-03-08T09:52:52.297Z,18.67
2023-03-08T09:54:00.929Z,18.34
2023-03-08T09:55:04.500Z,18.61
2023-03-08T09:56:21.179Z,18.50
2023-03-08T09:57:26.961Z,18.54
2023-03-08T09:58:28.836Z,18.58
2023-03-08T09:59:33.719Z,18.60
2023-03-08T10:00:37.579Z,18.64
2023-03-08T10:01:51.893Z,18.47
2023-03-08T10:03:27.244Z,18.43
2023-03-08T10:05:11.876Z,18.52
2023-03-08T10:06:48.802Z,18.41
2023-03-08T10:08:30.622Z,18.23
2023-03-08T10:09:42.003Z,18.57
2023-03-08T10:11:01.474Z,18.60
2023-03-08T10:12:13.494Z,18.70
2023-03-08T10:13:32.607Z,18.38
2023-03-08T10:14:42.726Z,18.47
2023-03-08T10:15:50.825Z,18.13
2023-03-08T10:16:57.519Z,18.80
2023-03-08T10:18:13.636Z,18.51
2023-03-08T10:19:30.910Z,18.34
2023-03-08T10:20:37.225Z,18.35
2023-03-08T10:21:42.168Z,18.18
2023-03-08T10:22:46.035Z,18.49
2023-03-08T10:23:57.403Z,18.40
2023-03-08T10:25:16.062Z,18.52
2023-03-08T10:26:18.838Z,18.32
2023-03-08T10:27:24.701Z,18.16
2023-03-08T10:28:27.920Z,18.30
2023-03-08T10:29:29.764Z,18.18
2023-03-08T10:30:51.401Z,18.21
2023-03-08T10:31:53.319Z,17.93
2023-03-08T10:32:59.666Z,18.18
2023-03-08T10:34:13.106Z,18.22
2023-03-08T10:35:16.173Z,17.99
2023-03-08T10:36:24.320Z,18.34
2023-03-08T10:37:31.740Z,18.29
2023-03-08T10:38:36.644Z,18.03
2023-03-08T10:39:52.704Z,18.08
2023-03-08T10:41:13.042Z,18.20
2023-03-08T10:42:16.718Z,18.08
2023-03-08T10:43:27.216Z,17.93
2023-03-08T10:44:33.799Z,18.18
2023-03-08T10:45:35.632Z,18.02
2023-03-08T10:46:47.309Z,18.35
2023-03-08T10:47:56.908Z,17.93
2023-03-08T10:49:19.285Z,18.28
2023-03-08T10:50:24.761Z,17.85
2023-03-08T10:51:28.611Z,18.09
2023-03-08T10:52:30.531Z,18.04
2023-03-08T10:53:33.488Z,18.29
2023-03-08T10:54:35.366Z,18.43
2023-03-08T10:55:43.550Z,17.94
2023-03-08T10:56:52.353Z,17.82
2023-03-08T10:57:57.284Z,17.82
2023-03-08T10:58:59.619Z,18.11
2023-03-08T11:00:22.263Z,18.12
2023-03-08T11:01:25.975Z,17.96
2023-03-08T11:02:27.925Z,18.04
2023-03-08T11:03:29.818Z,17.71
2023-03-08T11:04:31.832Z,17.93
2023-03-08T11:05:33.645Z,18.21
2023-03-08T11:06:35.598Z,17.70
2023-03-08T11:07:37.603Z,18.15
2023-03-08T11:08:51.294Z,18.19
2023-03-08T11:10:13.521Z,18.10
2023-03-08T11:11:15.364Z,17.64
2023-03-08T11:12:26.195Z,17.82
2023-03-08T11:13:32.686Z,18.07
2023-03-08T11:14:34.573Z,17.83
2023-03-08T11:15:40.270Z,17.86
2023-03-08T11:17:05.759Z,17.59
2023-03-08T11:18:21.712Z,17.71
2023-03-08T11:19:45.479Z,17.61
2023-03-08T11:20:54.861Z,17.89
2023-03-08T11:22:20.903Z,17.89
2023-03-08T11:23:33.197Z,17.51
2023-03-08T11:24:50.146Z,17.32
2023-03-08T11:26:05.600Z,17.33
2023-03-08T11:27:18.401Z,17.32
2023-03-08T11:28:46.164Z,17.78
2023-03-08T11:29:50.788Z,17.50
2023-03-08T11:30:52.672Z,17.70
2023-03-08T11:32:02.340Z,17.33
2023-03-08T11:33:35.243Z,17.44
2023-03-08T11:35:06.029Z,17.25
2023-03-08T11:36:28.832Z,17.64
2023-03-08T11:37:40.053Z,17.59
2023-03-08T11:38:43.066Z,17.65
2023-03-08T11:39:59.652Z,17.78
2023-03-08T11:41:26.095Z,17.58
2023-03-08T11:42:58.036Z,17.60
2023-03-08T11:44:40.573Z,17.39
2023-03-08T11:45:45.048Z,17.10
2023-03-08T11:46:58.722Z,17.31
2023-03-08T11:48:07.695Z,17.46
2023-03-08T11:49:31.121Z,17.57
2023-03-08T11:50:40.242Z,17.59
2023-03-08T11:52:08.155Z,17.52
2023-03-08T11:53:16.978Z,17.37
2023-03-08T11:54:31.678Z,17.55
2023-03-08T11:55:46.086Z,17.56
2023-03-08T11:56:57.169Z,17.59
2023-03-08T11:58:13.629Z,17.73
2023-03-08T11:59:25.214Z,17.62
2023-03-08T12:00:35.952Z,17.75
2023-03-08T12:01:45.781Z,17.69
2023-03-08T12:02:48.844Z,17.43
2023-03-08T12:03:54.681Z,17.66
2023-03-08T12:05:10.058Z,17.65
2023-03-08T12:06:28.647Z,17.43
2023-03-08T12:07:43.455Z,17.25
2023-03-08T12:08:51.208Z,17.42
2023-03-08T12:10:03.479Z,17.32
2023-03-08T12:11:19.368Z,17.51
2023-03-08T12:12:30.602Z,17.60
2023-03-08T12:13:38.835Z,17.53
2023-03-08T12:14:57.216Z,17.49
2023-03-08T12:16:29.273Z,17.35
2023-03-08T12:17:45.656Z,17.57
2023-03-08T12:19:18.398Z,17.81
2023-03-08T12:20:22.335Z,17.40
2023-03-08T12:21:55.986Z,17.82
2023-03-08T12:23:12.029Z,17.58
2023-03-08T12:24:41.284Z,17.43
2023-03-08T12:25:46.515Z,17.24
2023-03-08T12:27:08.496Z,17.57
2023-03-08T12:28:20.834Z,17.86
2023-03-08T12:29:42.515Z,17.61
2023-03-08T12:31:29.179Z,17.88
2023-03-08T12:32:33.083Z,17.73
2023-03-08T12:33:35.552Z,17.96
2023-03-08T12:34:46.369Z,17.91
2023-03-08T12:36:06.776Z,17.65
2023-03-08T12:37:26.304Z,17.80
2023-03-08T12:38:38.128Z,17.59
2023-03-08T12:39:40.737Z,17.56
2023-03-08T12:40:44.415Z,17.87
2023-03-08T12:41:57.492Z,17.38
2023-03-08T12:43:14.229Z,17.84
2023-03-08T12:44:25.062Z,17.44
2023-03-08T12:45:31.133Z,17.33
2023-03-08T12:47:02.881Z,17.43
2023-03-08T12:48:05.712Z,17.67
2023-03-08T12:49:20.072Z,17.59
2023-03-08T12:50:24.834Z,17.79
2023-03-08T12:51:33.962Z,17.68
2023-03-08T12:52:36.325Z,17.75
2023-03-08T12:53:46.516Z,17.53
2023-03-08T12:55:00.414Z,17.69
2023-03-08T12:56:11.055Z,17.58
2023-03-08T12:57:22.726Z,17.82
2023-03-08T12:58:24.720Z,17.96
2023-03-08T12:59:44.738Z,17.65
2023-03-08T13:00:46.740Z,17.70
2023-03-08T13:01:57.426Z,17.67
2023-03-08T13:03:05.318Z,17.38
2023-03-08T13:04:41.358Z,17.38
2023-03-08T13:05:47.344Z,17.51
2023-03-08T13:07:09.355Z,17.30
2023-03-08T13:08:13.890Z,17.88
2023-03-08T13:09:24.700Z,17.81
2023-03-08T13:10:33.606Z,17.82
2023-03-08T13:11:44.391Z,17.53
2023-03-08T13:12:48.942Z,17.36
2023-03-08T13:14:01.576Z,17.60
2023-03-08T13:15:13.631Z,17.47
2023-03-08T13:16:15.554Z,17.53
2023-03-08T13:17:35.249Z,17.88
2023-03-08T13:18:37.149Z,17.60
2023-03-08T13:19:39.036Z,17.42
2023-03-08T13:20:49.235Z,17.79
2023-03-08T13:21:57.120Z,17.73
2023-03-08T13:23:13.898Z,17.21
2023-03-08T13:24:37.093Z,17.60
2023-03-08T13:25:55.709Z,17.47
2023-03-08T13:27:11.832Z,17.49
2023-03-08T13:28:22.554Z,17.38
2023-03-08T13:29:30.972Z,17.39
2023-03-08T13:30:36.345Z,17.34
2023-03-08T13:31:39.776Z,17.33
2023-03-08T13:32:41.931Z,17.41
2023-03-08T13:33:48.814Z,17.51
2023-03-08T13:35:02.574Z,17.67
2023-03-08T13:36:19.440Z,17.40
2023-03-08T13:37:26.832Z,17.43
2023-03-08T13:38:34.938Z,17.59
2023-03-08T13:39:36.767Z,17.50
2023-03-08T13:40:39.641Z,17.19
2023-03-08T13:41:45.601Z,17.62
2023-03-08T13:42:58.224Z,17.66
2023-03-08T13:44:05.050Z,17.42
2023-03-08T13:45:17.069Z,17.70
2023-03-08T13:46:19.673Z,17.51
2023-03-08T13:47:31.036Z,17.83
2023-03-08T13:48:36.388Z,17.65
2023-03-08T13:49:43.695Z,17.46
2023-03-08T13:50:47.461Z,17.74
2023-03-08T13:51:52.538Z,17.58
2023-03-08T13:52:55.061Z,17.80
2023-03-08T13:53:57.458Z,17.49
2023-03-08T13:55:04.859Z,17.68
2023-03-08T13:56:08.234Z,17.65
2023-03-08T13:57:27.143Z,17.96
2023-03-08T13:58:38.526Z,17.77
2023-03-08T13:59:48.738Z,17.61
2023-03-08T14:01:01.680Z,17.47
2023-03-08T14:02:19.471Z,17.47
2023-03-08T14:03:21.326Z,17.43
2023-03-08T14:04:26.772Z,17.41
2023-03-08T14:05:31.777Z,17.77
2023-03-08T14:06:36.614Z,17.69
2023-03-08T14:07:38.492Z,17.74
2023-03-08T14:08:40.307Z,17.50
2023-03-08T14:09:42.120Z,17.85
2023-03-08T14:10:55.297Z,17.96
2023-03-08T14:12:04.577Z,17.61